sensor_id;sensor_type;location;lat;lon;timestamp;temperature;humidity
6164;DHT22;3114;48.362;10.994;2023-03-01T00:02:22;4.80;99.90
6164;DHT22;3114;48.362;10.994;2023-03-01T00:04:49;4.70;99.90
6164;DHT22;3114;48.362;10.994;2023-03-01T00:07:16;4.70;99.90
6164;DHT22;3114;48.362;10.994;2023-03-01T00:09:43;4.80;99.90
6164;DHT22;3114;48.362;10.994;2023-03-01T00:12:11;4.90;99.90
6164;DHT22;3114;48.362;10.994;2023-03-01T00:14:38;4.90;99.90
6164;DHT22;3114;48.362;10.994;2023-03-01T00:17:06;4.90;99.90
6164;DHT22;3114;48.362;10.994;2023-03-01T00:19:33;5.00;99.90
6164;DHT22;3114;48.362;10.994;2023-03-01T00:22:00;4.80;99.90
6164;DHT22;3114;48.362;10.994;2023-03-01T00:24:27;4.60;99.90
6164;DHT22;3114;48.362;10.994;2023-03-01T00:26:55;4.60;99.90
6164;DHT22;3114;48.362;10.994;2023-03-01T00:29:22;4.50;99.90
6164;DHT22;3114;48.362;10.994;2023-03-01T00:31:49;4.60;99.90
6164;DHT22;3114;48.362;10.994;2023-03-01T00:34:17;4.60;99.90
6164;DHT22;3114;48.362;10.994;2023-03-01T00:36:44;4.70;99.90
6164;DHT22;3114;48.362;10.994;2023-03-01T00:39:15;4.70;99.90
6164;DHT22;3114;48.362;10.994;2023-03-01T00:41:42;4.70;99.90
6164;DHT22;3114;48.362;10.994;2023-03-01T00:44:10;4.60;99.90
6164;DHT22;3114;48.362;10.994;2023-03-01T00:46:37;4.60;99.90
6164;DHT22;3114;48.362;10.994;2023-03-01T00:49:04;4.60;99.90
6164;DHT22;3114;48.362;10.994;2023-03-01T00:51:32;4.70;99.90
6164;DHT22;3114;48.362;10.994;2023-03-01T00:54:01;4.70;99.90
6164;DHT22;3114;48.362;10.994;2023-03-01T00:56:29;4.70;99.90
6164;DHT22;3114;48.362;10.994;2023-03-01T00:58:56;4.60;99.90
6164;DHT22;3114;48.362;10.994;2023-03-01T01:01:25;4.60;99.90
6164;DHT22;3114;48.362;10.994;2023-03-01T01:03:55;4.60;99.90
6164;DHT22;3114;48.362;10.994;2023-03-01T01:06:24;4.50;99.90
6164;DHT22;3114;48.362;10.994;2023-03-01T01:08:53;4.50;99.90
6164;DHT22;3114;48.362;10.994;2023-03-01T01:11:22;4.60;99.90
6164;DHT22;3114;48.362;10.994;2023-03-01T01:13:49;4.60;99.90
6164;DHT22;3114;48.362;10.994;2023-03-01T01:16:17;4.50;99.90
6164;DHT22;3114;48.362;10.994;2023-03-01T01:18:45;4.70;99.90
6164;DHT22;3114;48.362;10.994;2023-03-01T01:21:14;4.70;99.90
6164;DHT22;3114;48.362;10.994;2023-03-01T01:23:42;4.80;99.90
6164;DHT22;3114;48.362;10.994;2023-03-01T01:26:13;4.80;99.90
6164;DHT22;3114;48.362;10.994;2023-03-01T01:28:40;4.70;99.90
6164;DHT22;3114;48.362;10.994;2023-03-01T01:31:07;4.60;99.90
6164;DHT22;3114;48.362;10.994;2023-03-01T01:33:35;4.80;99.90
6164;DHT22;3114;48.362;10.994;2023-03-01T01:36:03;4.70;99.90
6164;DHT22;3114;48.362;10.994;2023-03-01T01:38:30;4.70;99.90
6164;DHT22;3114;48.362;10.994;2023-03-01T01:40:57;4.70;99.90
6164;DHT22;3114;48.362;10.994;2023-03-01T01:43:28;4.60;99.90
6164;DHT22;3114;48.362;10.994;2023-03-01T01:45:56;4.70;99.90
6164;DHT22;3114;48.362;10.994;2023-03-01T01:48:32;4.70;99.90
6164;DHT22;3114;48.362;10.994;2023-03-01T01:51:08;4.70;99.90
6164;DHT22;3114;48.362;10.994;2023-03-01T01:53:37;4.60;99.90
6164;DHT22;3114;48.362;10.994;2023-03-01T01:56:08;4.70;99.90
6164;DHT22;3114;48.362;10.994;2023-03-01T01:58:37;4.70;99.90
6164;DHT22;3114;48.362;10.994;2023-03-01T02:01:05;4.70;99.90
6164;DHT22;3114;48.362;10.994;2023-03-01T02:03:33;4.70;99.90
6164;DHT22;3114;48.362;10.994;2023-03-01T02:06:06;4.70;99.90
6164;DHT22;3114;48.362;10.994;2023-03-01T02:08:36;4.70;99.90
6164;DHT22;3114;48.362;10.994;2023-03-01T02:11:04;4.70;99.90
6164;DHT22;3114;48.362;10.994;2023-03-01T02:13:33;4.70;99.90
6164;DHT22;3114;48.362;10.994;2023-03-01T02:30:17;4.50;99.90
6164;DHT22;3114;48.362;10.994;2023-03-01T02:32:45;4.40;99.90
6164;DHT22;3114;48.362;10.994;2023-03-01T02:35:13;4.40;99.90
6164;DHT22;3114;48.362;10.994;2023-03-01T02:37:41;4.30;99.90
6164;DHT22;3114;48.362;10.994;2023-03-01T02:40:12;4.30;99.90
6164;DHT22;3114;48.362;10.994;2023-03-01T02:42:47;4.30;99.90
6164;DHT22;3114;48.362;10.994;2023-03-01T02:45:15;4.40;99.90
6164;DHT22;3114;48.362;10.994;2023-03-01T02:47:44;4.30;99.90
6164;DHT22;3114;48.362;10.994;2023-03-01T02:50:21;4.40;99.90
6164;DHT22;3114;48.362;10.994;2023-03-01T02:52:55;4.40;99.90
6164;DHT22;3114;48.362;10.994;2023-03-01T02:55:24;4.40;99.90
6164;DHT22;3114;48.362;10.994;2023-03-01T02:57:51;4.40;99.90
6164;DHT22;3114;48.362;10.994;2023-03-01T03:00:21;4.40;99.90
6164;DHT22;3114;48.362;10.994;2023-03-01T03:02:53;4.20;99.90
6164;DHT22;3114;48.362;10.994;2023-03-01T03:05:24;4.20;99.90
6164;DHT22;3114;48.362;10.994;2023-03-01T03:07:51;4.10;99.90
6164;DHT22;3114;48.362;10.994;2023-03-01T03:10:20;4.20;99.90
6164;DHT22;3114;48.362;10.994;2023-03-01T03:12:49;4.20;99.90
6164;DHT22;3114;48.362;10.994;2023-03-01T03:15:17;4.20;99.90
6164;DHT22;3114;48.362;10.994;2023-03-01T03:17:44;4.20;99.90
6164;DHT22;3114;48.362;10.994;2023-03-01T03:20:14;4.20;99.90
6164;DHT22;3114;48.362;10.994;2023-03-01T03:22:44;4.20;99.90
6164;DHT22;3114;48.362;10.994;2023-03-01T03:25:12;4.20;99.90
6164;DHT22;3114;48.362;10.994;2023-03-01T03:27:40;4.20;99.90
6164;DHT22;3114;48.362;10.994;2023-03-01T03:30:09;4.10;99.90
6164;DHT22;3114;48.362;10.994;2023-03-01T03:32:38;4.10;99.90
6164;DHT22;3114;48.362;10.994;2023-03-01T03:35:06;4.20;99.90
6164;DHT22;3114;48.362;10.994;2023-03-01T03:37:37;4.10;99.90
6164;DHT22;3114;48.362;10.994;2023-03-01T03:40:22;4.20;99.90
6164;DHT22;3114;48.362;10.994;2023-03-01T03:42:52;4.20;99.90
6164;DHT22;3114;48.362;10.994;2023-03-01T03:45:19;4.20;99.90
6164;DHT22;3114;48.362;10.994;2023-03-01T03:47:46;4.10;99.90
6164;DHT22;3114;48.362;10.994;2023-03-01T03:50:14;4.10;99.90
6164;DHT22;3114;48.362;10.994;2023-03-01T03:52:43;4.10;99.90
6164;DHT22;3114;48.362;10.994;2023-03-01T03:55:11;4.10;99.90
6164;DHT22;3114;48.362;10.994;2023-03-01T03:57:39;4.10;99.90
6164;DHT22;3114;48.362;10.994;2023-03-01T04:00:11;4.20;99.90
6164;DHT22;3114;48.362;10.994;2023-03-01T04:02:38;4.20;99.90
6164;DHT22;3114;48.362;10.994;2023-03-01T04:05:06;4.30;99.90
6164;DHT22;3114;48.362;10.994;2023-03-01T04:07:34;4.30;99.90
6164;DHT22;3114;48.362;10.994;2023-03-01T04:10:02;4.50;99.90
6164;DHT22;3114;48.362;10.994;2023-03-01T04:12:29;4.20;99.90
6164;DHT22;3114;48.362;10.994;2023-03-01T04:14:56;4.20;99.90
6164;DHT22;3114;48.362;10.994;2023-03-01T04:17:23;4.20;99.90
6164;DHT22;3114;48.362;10.994;2023-03-01T04:19:50;4.20;99.90
6164;DHT22;3114;48.362;10.994;2023-03-01T04:22:17;4.20;99.90
6164;DHT22;3114;48.362;10.994;2023-03-01T04:24:44;4.20;99.90
6164;DHT22;3114;48.362;10.994;2023-03-01T04:27:12;4.30;99.90
6164;DHT22;3114;48.362;10.994;2023-03-01T04:29:39;4.30;99.90
6164;DHT22;3114;48.362;10.994;2023-03-01T04:32:06;4.20;99.90
6164;DHT22;3114;48.362;10.994;2023-03-01T04:34:33;4.20;99.90
6164;DHT22;3114;48.362;10.994;2023-03-01T04:37:00;4.20;99.90
6164;DHT22;3114;48.362;10.994;2023-03-01T04:39:27;4.10;99.90
6164;DHT22;3114;48.362;10.994;2023-03-01T04:41:53;4.00;99.90
6164;DHT22;3114;48.362;10.994;2023-03-01T04:44:22;4.00;99.90
6164;DHT22;3114;48.362;10.994;2023-03-01T04:46:49;4.10;99.90
6164;DHT22;3114;48.362;10.994;2023-03-01T04:49:16;4.20;99.90
6164;DHT22;3114;48.362;10.994;2023-03-01T04:51:43;4.00;99.90
6164;DHT22;3114;48.362;10.994;2023-03-01T04:54:09;3.90;99.90
6164;DHT22;3114;48.362;10.994;2023-03-01T04:56:36;3.90;99.90
6164;DHT22;3114;48.362;10.994;2023-03-01T04:59:03;3.80;99.90
6164;DHT22;3114;48.362;10.994;2023-03-01T05:01:32;3.80;99.90
6164;DHT22;3114;48.362;10.994;2023-03-01T05:04:01;3.80;99.90
6164;DHT22;3114;48.362;10.994;2023-03-01T05:06:31;3.70;99.90
6164;DHT22;3114;48.362;10.994;2023-03-01T05:08:58;3.70;99.90
6164;DHT22;3114;48.362;10.994;2023-03-01T05:11:25;3.70;99.90
6164;DHT22;3114;48.362;10.994;2023-03-01T05:13:53;3.50;99.90
6164;DHT22;3114;48.362;10.994;2023-03-01T05:16:20;3.50;99.90
6164;DHT22;3114;48.362;10.994;2023-03-01T05:18:49;3.50;99.90
6164;DHT22;3114;48.362;10.994;2023-03-01T05:21:17;3.50;99.90
6164;DHT22;3114;48.362;10.994;2023-03-01T05:23:44;3.50;99.90
6164;DHT22;3114;48.362;10.994;2023-03-01T05:26:12;3.50;99.90
6164;DHT22;3114;48.362;10.994;2023-03-01T05:28:39;3.40;99.90
6164;DHT22;3114;48.362;10.994;2023-03-01T05:31:07;3.40;99.90
6164;DHT22;3114;48.362;10.994;2023-03-01T05:33:35;3.50;99.90
6164;DHT22;3114;48.362;10.994;2023-03-01T05:36:04;3.30;99.90
6164;DHT22;3114;48.362;10.994;2023-03-01T05:38:31;3.20;99.90
6164;DHT22;3114;48.362;10.994;2023-03-01T05:40:58;3.20;99.90
6164;DHT22;3114;48.362;10.994;2023-03-01T05:43:25;3.10;99.90
6164;DHT22;3114;48.362;10.994;2023-03-01T05:45:57;3.10;99.90
6164;DHT22;3114;48.362;10.994;2023-03-01T05:48:25;3.00;99.90
6164;DHT22;3114;48.362;10.994;2023-03-01T05:50:52;3.10;99.90
6164;DHT22;3114;48.362;10.994;2023-03-01T05:53:20;3.20;99.90
6164;DHT22;3114;48.362;10.994;2023-03-01T05:55:47;3.10;99.90
6164;DHT22;3114;48.362;10.994;2023-03-01T05:58:16;3.20;99.90
6164;DHT22;3114;48.362;10.994;2023-03-01T06:00:45;3.20;99.90
6164;DHT22;3114;48.362;10.994;2023-03-01T06:03:14;3.10;99.90
6164;DHT22;3114;48.362;10.994;2023-03-01T06:05:41;3.20;99.90
6164;DHT22;3114;48.362;10.994;2023-03-01T06:08:10;3.10;99.90
6164;DHT22;3114;48.362;10.994;2023-03-01T06:10:38;3.10;99.90
6164;DHT22;3114;48.362;10.994;2023-03-01T06:13:06;3.10;99.90
6164;DHT22;3114;48.362;10.994;2023-03-01T06:15:33;3.10;99.90
6164;DHT22;3114;48.362;10.994;2023-03-01T06:18:00;2.90;99.90
6164;DHT22;3114;48.362;10.994;2023-03-01T06:20:28;2.90;99.90
6164;DHT22;3114;48.362;10.994;2023-03-01T06:22:55;2.90;99.90
6164;DHT22;3114;48.362;10.994;2023-03-01T06:25:24;2.90;99.90
6164;DHT22;3114;48.362;10.994;2023-03-01T06:27:53;2.90;99.90
6164;DHT22;3114;48.362;10.994;2023-03-01T06:30:21;2.90;99.90
6164;DHT22;3114;48.362;10.994;2023-03-01T06:32:48;3.00;99.90
6164;DHT22;3114;48.362;10.994;2023-03-01T06:35:16;3.10;99.90
6164;DHT22;3114;48.362;10.994;2023-03-01T06:37:44;3.10;99.90
6164;DHT22;3114;48.362;10.994;2023-03-01T06:40:12;3.10;99.90
6164;DHT22;3114;48.362;10.994;2023-03-01T06:42:40;3.20;99.90
6164;DHT22;3114;48.362;10.994;2023-03-01T06:45:10;3.20;99.90
6164;DHT22;3114;48.362;10.994;2023-03-01T06:47:37;3.30;99.90
6164;DHT22;3114;48.362;10.994;2023-03-01T06:50:04;3.20;99.90
6164;DHT22;3114;48.362;10.994;2023-03-01T06:52:31;3.20;99.90
6164;DHT22;3114;48.362;10.994;2023-03-01T06:54:58;3.20;99.90
6164;DHT22;3114;48.362;10.994;2023-03-01T06:57:25;3.30;99.90
6164;DHT22;3114;48.362;10.994;2023-03-01T06:59:52;3.30;99.90
6164;DHT22;3114;48.362;10.994;2023-03-01T07:02:21;3.30;99.90
6164;DHT22;3114;48.362;10.994;2023-03-01T07:04:49;3.50;99.90
6164;DHT22;3114;48.362;10.994;2023-03-01T07:07:16;3.50;99.90
6164;DHT22;3114;48.362;10.994;2023-03-01T07:09:43;3.50;99.90
6164;DHT22;3114;48.362;10.994;2023-03-01T07:12:10;3.50;99.90
6164;DHT22;3114;48.362;10.994;2023-03-01T07:14:37;3.60;99.90
6164;DHT22;3114;48.362;10.994;2023-03-01T07:17:04;3.50;99.90
6164;DHT22;3114;48.362;10.994;2023-03-01T07:19:32;3.60;99.90
6164;DHT22;3114;48.362;10.994;2023-03-01T07:21:59;3.60;99.90
6164;DHT22;3114;48.362;10.994;2023-03-01T07:24:26;3.60;99.90
6164;DHT22;3114;48.362;10.994;2023-03-01T07:26:53;3.70;99.90
6164;DHT22;3114;48.362;10.994;2023-03-01T07:29:20;3.80;99.90
6164;DHT22;3114;48.362;10.994;2023-03-01T07:31:47;3.70;99.90
6164;DHT22;3114;48.362;10.994;2023-03-01T07:34:14;3.80;99.90
6164;DHT22;3114;48.362;10.994;2023-03-01T07:36:42;3.70;99.90
6164;DHT22;3114;48.362;10.994;2023-03-01T07:39:11;3.70;99.90
6164;DHT22;3114;48.362;10.994;2023-03-01T07:41:38;3.80;99.90
6164;DHT22;3114;48.362;10.994;2023-03-01T07:44:05;3.80;99.90
6164;DHT22;3114;48.362;10.994;2023-03-01T07:46:31;3.80;99.90
6164;DHT22;3114;48.362;10.994;2023-03-01T07:48:59;3.80;99.90
6164;DHT22;3114;48.362;10.994;2023-03-01T07:51:26;3.90;99.90
6164;DHT22;3114;48.362;10.994;2023-03-01T07:53:54;4.00;99.90
6164;DHT22;3114;48.362;10.994;2023-03-01T07:56:21;3.80;99.90
6164;DHT22;3114;48.362;10.994;2023-03-01T07:58:48;3.80;99.90
6164;DHT22;3114;48.362;10.994;2023-03-01T08:01:17;4.00;99.90
6164;DHT22;3114;48.362;10.994;2023-03-01T08:03:44;3.70;99.90
6164;DHT22;3114;48.362;10.994;2023-03-01T08:06:12;3.80;99.90
6164;DHT22;3114;48.362;10.994;2023-03-01T08:08:40;3.90;99.90
6164;DHT22;3114;48.362;10.994;2023-03-01T08:11:10;3.70;99.90
6164;DHT22;3114;48.362;10.994;2023-03-01T08:13:37;3.60;99.90
6164;DHT22;3114;48.362;10.994;2023-03-01T08:16:06;3.40;99.90
6164;DHT22;3114;48.362;10.994;2023-03-01T08:18:34;3.60;99.90
6164;DHT22;3114;48.362;10.994;2023-03-01T08:21:05;3.80;99.90
6164;DHT22;3114;48.362;10.994;2023-03-01T08:23:32;3.70;99.90
6164;DHT22;3114;48.362;10.994;2023-03-01T08:26:08;3.80;99.90
6164;DHT22;3114;48.362;10.994;2023-03-01T08:28:35;4.10;99.90
6164;DHT22;3114;48.362;10.994;2023-03-01T08:31:02;4.10;99.90
6164;DHT22;3114;48.362;10.994;2023-03-01T08:33:29;4.30;99.90
6164;DHT22;3114;48.362;10.994;2023-03-01T08:36:03;4.20;99.90
6164;DHT22;3114;48.362;10.994;2023-03-01T08:38:32;4.30;99.90
6164;DHT22;3114;48.362;10.994;2023-03-01T08:41:00;4.40;99.90
6164;DHT22;3114;48.362;10.994;2023-03-01T08:43:28;4.40;99.90
6164;DHT22;3114;48.362;10.994;2023-03-01T08:45:55;4.50;99.90
6164;DHT22;3114;48.362;10.994;2023-03-01T08:48:22;4.30;99.90
6164;DHT22;3114;48.362;10.994;2023-03-01T08:50:49;4.30;99.90
6164;DHT22;3114;48.362;10.994;2023-03-01T08:53:16;4.50;99.90
6164;DHT22;3114;48.362;10.994;2023-03-01T08:55:43;4.30;99.90
6164;DHT22;3114;48.362;10.994;2023-03-01T08:58:10;4.30;99.90
6164;DHT22;3114;48.362;10.994;2023-03-01T09:00:38;4.40;99.90
6164;DHT22;3114;48.362;10.994;2023-03-01T09:03:05;4.30;99.90
6164;DHT22;3114;48.362;10.994;2023-03-01T09:05:33;4.40;99.90
6164;DHT22;3114;48.362;10.994;2023-03-01T09:08:01;4.50;99.90
6164;DHT22;3114;48.362;10.994;2023-03-01T09:10:28;4.50;99.90
6164;DHT22;3114;48.362;10.994;2023-03-01T09:12:55;4.70;99.90
6164;DHT22;3114;48.362;10.994;2023-03-01T09:15:22;4.70;99.90
6164;DHT22;3114;48.362;10.994;2023-03-01T09:17:50;4.70;99.90
6164;DHT22;3114;48.362;10.994;2023-03-01T09:20:17;4.70;99.90
6164;DHT22;3114;48.362;10.994;2023-03-01T09:22:44;4.50;99.90
6164;DHT22;3114;48.362;10.994;2023-03-01T09:25:13;4.80;99.90
6164;DHT22;3114;48.362;10.994;2023-03-01T09:27:40;5.00;99.90
6164;DHT22;3114;48.362;10.994;2023-03-01T09:30:08;5.20;99.90
6164;DHT22;3114;48.362;10.994;2023-03-01T09:32:35;5.10;99.90
6164;DHT22;3114;48.362;10.994;2023-03-01T09:35:04;5.20;99.90
6164;DHT22;3114;48.362;10.994;2023-03-01T09:37:33;5.10;99.90
6164;DHT22;3114;48.362;10.994;2023-03-01T09:40:00;5.20;99.90
6164;DHT22;3114;48.362;10.994;2023-03-01T09:42:29;5.30;99.90
6164;DHT22;3114;48.362;10.994;2023-03-01T09:45:01;5.00;99.90
6164;DHT22;3114;48.362;10.994;2023-03-01T09:47:31;5.20;99.90
6164;DHT22;3114;48.362;10.994;2023-03-01T09:50:04;4.90;99.90
6164;DHT22;3114;48.362;10.994;2023-03-01T09:52:38;4.80;99.90
6164;DHT22;3114;48.362;10.994;2023-03-01T09:55:11;4.70;99.90
6164;DHT22;3114;48.362;10.994;2023-03-01T09:57:43;4.90;99.90
6164;DHT22;3114;48.362;10.994;2023-03-01T10:00:20;5.00;99.90
6164;DHT22;3114;48.362;10.994;2023-03-01T10:02:55;4.90;99.90
6164;DHT22;3114;48.362;10.994;2023-03-01T10:05:36;4.80;99.90
6164;DHT22;3114;48.362;10.994;2023-03-01T10:08:36;4.60;99.90
6164;DHT22;3114;48.362;10.994;2023-03-01T10:11:05;4.60;99.90
6164;DHT22;3114;48.362;10.994;2023-03-01T10:13:46;4.90;99.90
6164;DHT22;3114;48.362;10.994;2023-03-01T10:16:16;4.80;99.90
6164;DHT22;3114;48.362;10.994;2023-03-01T10:18:48;4.80;99.90
6164;DHT22;3114;48.362;10.994;2023-03-01T10:21:20;4.90;99.90
6164;DHT22;3114;48.362;10.994;2023-03-01T10:23:50;4.50;99.90
6164;DHT22;3114;48.362;10.994;2023-03-01T10:26:41;4.60;99.90
6164;DHT22;3114;48.362;10.994;2023-03-01T10:29:12;4.60;99.90
6164;DHT22;3114;48.362;10.994;2023-03-01T10:31:42;4.80;99.90
6164;DHT22;3114;48.362;10.994;2023-03-01T10:34:11;5.00;99.90
6164;DHT22;3114;48.362;10.994;2023-03-01T10:36:40;5.10;99.90
6164;DHT22;3114;48.362;10.994;2023-03-01T10:39:13;5.10;99.90
6164;DHT22;3114;48.362;10.994;2023-03-01T10:41:56;5.30;99.90
6164;DHT22;3114;48.362;10.994;2023-03-01T10:44:38;5.30;99.90
6164;DHT22;3114;48.362;10.994;2023-03-01T10:47:16;5.20;99.90
6164;DHT22;3114;48.362;10.994;2023-03-01T10:49:54;4.90;99.90
6164;DHT22;3114;48.362;10.994;2023-03-01T10:52:25;4.80;99.90
6164;DHT22;3114;48.362;10.994;2023-03-01T10:54:54;4.80;99.90
6164;DHT22;3114;48.362;10.994;2023-03-01T10:57:29;4.90;99.90
6164;DHT22;3114;48.362;10.994;2023-03-01T11:00:19;4.90;99.90
6164;DHT22;3114;48.362;10.994;2023-03-01T11:02:49;5.10;99.90
6164;DHT22;3114;48.362;10.994;2023-03-01T11:05:19;5.30;99.90
6164;DHT22;3114;48.362;10.994;2023-03-01T11:07:51;5.20;99.90
6164;DHT22;3114;48.362;10.994;2023-03-01T11:10:22;5.10;99.90
6164;DHT22;3114;48.362;10.994;2023-03-01T11:12:50;5.30;99.90
6164;DHT22;3114;48.362;10.994;2023-03-01T11:15:25;5.30;99.90
6164;DHT22;3114;48.362;10.994;2023-03-01T11:17:53;5.60;99.90
6164;DHT22;3114;48.362;10.994;2023-03-01T11:22:56;10.60;99.90
6164;DHT22;3114;48.362;10.994;2023-03-01T11:25:26;13.40;99.90
6164;DHT22;3114;48.362;10.994;2023-03-01T11:27:55;15.90;99.90
6164;DHT22;3114;48.362;10.994;2023-03-01T11:30:25;18.40;99.90
6164;DHT22;3114;48.362;10.994;2023-03-01T11:33:03;19.80;99.90
6164;DHT22;3114;48.362;10.994;2023-03-01T11:35:32;21.40;99.90
6164;DHT22;3114;48.362;10.994;2023-03-01T11:38:14;21.90;99.90
6164;DHT22;3114;48.362;10.994;2023-03-01T11:40:46;22.10;99.90
6164;DHT22;3114;48.362;10.994;2023-03-01T11:43:18;22.70;99.90
6164;DHT22;3114;48.362;10.994;2023-03-01T11:48:45;23.40;99.90
6164;DHT22;3114;48.362;10.994;2023-03-01T11:51:20;22.90;99.90
6164;DHT22;3114;48.362;10.994;2023-03-01T11:54:12;22.80;99.90
6164;DHT22;3114;48.362;10.994;2023-03-01T11:56:43;24.10;99.90
6164;DHT22;3114;48.362;10.994;2023-03-01T11:59:33;23.80;99.90
6164;DHT22;3114;48.362;10.994;2023-03-01T12:02:22;24.10;99.90
6164;DHT22;3114;48.362;10.994;2023-03-01T12:05:16;25.10;99.90
6164;DHT22;3114;48.362;10.994;2023-03-01T12:07:53;26.00;99.90
6164;DHT22;3114;48.362;10.994;2023-03-01T12:10:28;26.80;99.90
6164;DHT22;3114;48.362;10.994;2023-03-01T12:13:23;26.20;99.90
6164;DHT22;3114;48.362;10.994;2023-03-01T12:16:00;26.60;99.90
6164;DHT22;3114;48.362;10.994;2023-03-01T12:21:39;29.50;99.90
6164;DHT22;3114;48.362;10.994;2023-03-01T12:24:27;31.80;99.90
6164;DHT22;3114;48.362;10.994;2023-03-01T12:27:12;31.00;99.90
6164;DHT22;3114;48.362;10.994;2023-03-01T12:29:47;30.30;99.90
6164;DHT22;3114;48.362;10.994;2023-03-01T12:32:43;31.90;99.90
6164;DHT22;3114;48.362;10.994;2023-03-01T12:35:25;31.20;99.90
6164;DHT22;3114;48.362;10.994;2023-03-01T12:38:00;31.50;99.90
6164;DHT22;3114;48.362;10.994;2023-03-01T12:40:51;30.30;99.90
6164;DHT22;3114;48.362;10.994;2023-03-01T12:43:33;30.70;99.90
6164;DHT22;3114;48.362;10.994;2023-03-01T12:46:14;31.30;99.90
6164;DHT22;3114;48.362;10.994;2023-03-01T12:48:51;28.90;99.90
6164;DHT22;3114;48.362;10.994;2023-03-01T12:51:23;28.00;99.90
6164;DHT22;3114;48.362;10.994;2023-03-01T12:53:52;25.80;99.90
6164;DHT22;3114;48.362;10.994;2023-03-01T12:56:23;26.10;99.90
6164;DHT22;3114;48.362;10.994;2023-03-01T12:59:03;26.70;99.90
6164;DHT22;3114;48.362;10.994;2023-03-01T13:01:41;27.90;99.90
6164;DHT22;3114;48.362;10.994;2023-03-01T13:04:23;28.90;99.90
6164;DHT22;3114;48.362;10.994;2023-03-01T13:07:02;29.10;99.90
6164;DHT22;3114;48.362;10.994;2023-03-01T13:09:36;29.80;99.90
6164;DHT22;3114;48.362;10.994;2023-03-01T13:15:25;32.10;99.90
6164;DHT22;3114;48.362;10.994;2023-03-01T13:17:53;32.40;99.90
6164;DHT22;3114;48.362;10.994;2023-03-01T13:20:32;29.70;99.90
6164;DHT22;3114;48.362;10.994;2023-03-01T13:23:07;28.70;99.90
6164;DHT22;3114;48.362;10.994;2023-03-01T13:25:34;28.10;99.90
6164;DHT22;3114;48.362;10.994;2023-03-01T13:28:36;26.10;99.90
6164;DHT22;3114;48.362;10.994;2023-03-01T13:31:06;24.90;99.90
6164;DHT22;3114;48.362;10.994;2023-03-01T13:33:40;26.50;99.90
6164;DHT22;3114;48.362;10.994;2023-03-01T13:36:08;27.50;99.90
6164;DHT22;3114;48.362;10.994;2023-03-01T13:38:46;28.30;99.90
6164;DHT22;3114;48.362;10.994;2023-03-01T13:41:14;28.30;99.90
6164;DHT22;3114;48.362;10.994;2023-03-01T13:43:43;29.30;99.90
6164;DHT22;3114;48.362;10.994;2023-03-01T13:46:16;30.60;99.90
6164;DHT22;3114;48.362;10.994;2023-03-01T13:48:45;30.40;99.90
6164;DHT22;3114;48.362;10.994;2023-03-01T13:51:14;29.60;99.90
6164;DHT22;3114;48.362;10.994;2023-03-01T13:53:43;27.90;99.90
6164;DHT22;3114;48.362;10.994;2023-03-01T13:56:13;26.00;99.90
6164;DHT22;3114;48.362;10.994;2023-03-01T13:58:48;25.30;99.90
6164;DHT22;3114;48.362;10.994;2023-03-01T14:01:28;25.20;99.90
6164;DHT22;3114;48.362;10.994;2023-03-01T14:03:55;24.80;99.90
6164;DHT22;3114;48.362;10.994;2023-03-01T14:06:24;23.90;99.90
6164;DHT22;3114;48.362;10.994;2023-03-01T14:09:02;22.50;99.90
6164;DHT22;3114;48.362;10.994;2023-03-01T14:11:54;22.20;99.90
6164;DHT22;3114;48.362;10.994;2023-03-01T14:14:51;22.10;99.90
6164;DHT22;3114;48.362;10.994;2023-03-01T14:17:44;21.20;99.90
6164;DHT22;3114;48.362;10.994;2023-03-01T14:20:16;19.60;99.90
6164;DHT22;3114;48.362;10.994;2023-03-01T14:22:44;19.10;99.90
6164;DHT22;3114;48.362;10.994;2023-03-01T14:25:26;18.50;99.90
6164;DHT22;3114;48.362;10.994;2023-03-01T14:27:58;20.10;99.90
6164;DHT22;3114;48.362;10.994;2023-03-01T14:30:27;20.40;99.90
6164;DHT22;3114;48.362;10.994;2023-03-01T14:32:59;19.30;99.90
6164;DHT22;3114;48.362;10.994;2023-03-01T14:35:28;17.40;99.90
6164;DHT22;3114;48.362;10.994;2023-03-01T14:37:55;16.00;99.90
6164;DHT22;3114;48.362;10.994;2023-03-01T14:40:25;14.80;99.90
6164;DHT22;3114;48.362;10.994;2023-03-01T14:42:53;14.40;99.90
6164;DHT22;3114;48.362;10.994;2023-03-01T14:45:21;13.90;99.90
6164;DHT22;3114;48.362;10.994;2023-03-01T14:47:50;13.80;99.90
6164;DHT22;3114;48.362;10.994;2023-03-01T14:50:23;13.20;99.90
6164;DHT22;3114;48.362;10.994;2023-03-01T14:52:53;13.10;99.90
6164;DHT22;3114;48.362;10.994;2023-03-01T14:55:22;12.90;99.90
6164;DHT22;3114;48.362;10.994;2023-03-01T14:57:52;12.90;99.90
6164;DHT22;3114;48.362;10.994;2023-03-01T15:00:21;13.00;99.90
6164;DHT22;3114;48.362;10.994;2023-03-01T15:02:50;12.80;99.90
6164;DHT22;3114;48.362;10.994;2023-03-01T15:05:22;12.80;99.90
6164;DHT22;3114;48.362;10.994;2023-03-01T15:07:51;12.70;99.90
6164;DHT22;3114;48.362;10.994;2023-03-01T15:10:21;12.60;99.90
6164;DHT22;3114;48.362;10.994;2023-03-01T15:12:49;12.70;99.90
6164;DHT22;3114;48.362;10.994;2023-03-01T15:15:30;12.50;99.90
6164;DHT22;3114;48.362;10.994;2023-03-01T15:17:59;12.40;99.90
6164;DHT22;3114;48.362;10.994;2023-03-01T15:20:29;12.00;99.90
6164;DHT22;3114;48.362;10.994;2023-03-01T15:23:01;12.00;99.90
6164;DHT22;3114;48.362;10.994;2023-03-01T15:25:30;11.80;99.90
6164;DHT22;3114;48.362;10.994;2023-03-01T15:28:00;11.80;99.90
6164;DHT22;3114;48.362;10.994;2023-03-01T15:30:30;11.20;99.90
6164;DHT22;3114;48.362;10.994;2023-03-01T15:33:29;11.20;99.90
6164;DHT22;3114;48.362;10.994;2023-03-01T15:35:58;11.50;99.90
6164;DHT22;3114;48.362;10.994;2023-03-01T15:38:31;11.50;99.90
6164;DHT22;3114;48.362;10.994;2023-03-01T15:41:00;11.30;99.90
6164;DHT22;3114;48.362;10.994;2023-03-01T15:43:38;11.20;99.90
6164;DHT22;3114;48.362;10.994;2023-03-01T15:46:11;11.30;99.90
6164;DHT22;3114;48.362;10.994;2023-03-01T15:48:44;11.30;99.90
6164;DHT22;3114;48.362;10.994;2023-03-01T15:51:13;11.20;99.90
6164;DHT22;3114;48.362;10.994;2023-03-01T15:53:41;11.20;99.90
6164;DHT22;3114;48.362;10.994;2023-03-01T15:56:08;11.00;99.90
6164;DHT22;3114;48.362;10.994;2023-03-01T15:58:34;10.60;99.90
6164;DHT22;3114;48.362;10.994;2023-03-01T16:01:01;10.80;99.90
6164;DHT22;3114;48.362;10.994;2023-03-01T16:03:28;10.30;99.90
6164;DHT22;3114;48.362;10.994;2023-03-01T16:05:55;10.20;99.90
6164;DHT22;3114;48.362;10.994;2023-03-01T16:08:23;10.20;99.90
6164;DHT22;3114;48.362;10.994;2023-03-01T16:10:50;10.40;99.90
6164;DHT22;3114;48.362;10.994;2023-03-01T16:13:19;10.50;99.90
6164;DHT22;3114;48.362;10.994;2023-03-01T16:15:46;10.20;99.90
6164;DHT22;3114;48.362;10.994;2023-03-01T16:18:13;10.30;99.90
6164;DHT22;3114;48.362;10.994;2023-03-01T16:20:40;10.30;99.90
6164;DHT22;3114;48.362;10.994;2023-03-01T16:23:08;10.30;99.90
6164;DHT22;3114;48.362;10.994;2023-03-01T16:25:38;10.30;99.90
6164;DHT22;3114;48.362;10.994;2023-03-01T16:28:05;10.30;99.90
6164;DHT22;3114;48.362;10.994;2023-03-01T16:30:34;10.30;99.90
6164;DHT22;3114;48.362;10.994;2023-03-01T16:33:01;10.20;99.90
6164;DHT22;3114;48.362;10.994;2023-03-01T16:35:32;10.30;99.90
6164;DHT22;3114;48.362;10.994;2023-03-01T16:37:59;10.20;99.90
6164;DHT22;3114;48.362;10.994;2023-03-01T16:40:28;10.20;99.90
6164;DHT22;3114;48.362;10.994;2023-03-01T16:42:57;10.10;99.90
6164;DHT22;3114;48.362;10.994;2023-03-01T16:45:27;10.10;99.90